Terminal Aerodrome Forecast
Issued by NWS

Home | Current Version | Previous Version | Text Only | Print | Product List | Glossary On
Versions: 1 2 3 4 5 6 7 8 9 10 11 12 13 14 15 16 17
000
FTUS44 KLZK 152300
TAFHOT
TAF
KHOT 152337Z 1600/1624 VRB03KT P6SM VCSH SCT040 BKN150
     FM160400 00000KT P6SM BKN120
     FM160900 00000KT P6SM SCT015 OVC100
     FM161100 00000KT 4SM BR OVC012
     FM161600 06005KT P6SM BKN025=

USA.gov is the U.S. government's official web portal to all federal, state and local government web resources and services.